Time;durP1;ratioP1;P1;durP2;ratioP2;P2;SDS_P1;SDS_P2;PMS_P1;PMS_P2;Temp;Humidity;BMP_temperature;BMP_pressure;BME280_temperature;BME280_humidity;BME280_pressure;Samples;Min_cycle;Max_cycle;Signal;HPM_P1;HPM_P2
2022/06/11 00:00:24;;;;;;;16.70;6.75;;;;;;;;;;4897638;29;20041;-84
2022/06/11 00:02:51;;;;;;;11.30;5.90;;;;;;;;;;4911612;29;20052;-85
2022/06/11 00:05:17;;;;;;;11.60;6.32;;;;;;;;;;4912584;29;20096;-86
2022/06/11 00:07:44;;;;;;;10.48;7.00;;;;;;;;;;4899980;29;20036;-85
2022/06/11 00:10:11;;;;;;;14.90;6.57;;;;;;;;;;4881998;29;20052;-85
2022/06/11 00:12:37;;;;;;;8.75;6.55;;;;;;;;;;4897153;29;20028;-81
2022/06/11 00:15:17;;;;;;;12.23;6.82;;;;;;;;;;4874736;29;20047;-85
2022/06/11 00:17:56;;;;;;;7.45;6.07;;;;;;;;;;4902815;29;20507;-84
2022/06/11 00:20:30;;;;;;;10.10;6.80;;;;;;;;;;4907857;29;20059;-87
2022/06/11 00:22:56;;;;;;;11.77;7.38;;;;;;;;;;4874320;29;20048;-86
2022/06/11 00:25:22;;;;;;;13.10;6.90;;;;;;;;;;4889139;29;20052;-84
2022/06/11 00:27:55;;;;;;;15.18;7.07;;;;;;;;;;4871630;29;20044;-89
2022/06/11 00:30:21;;;;;;;12.07;6.93;;;;;;;;;;4902651;29;20583;-86
2022/06/11 00:32:48;;;;;;;13.25;7.43;;;;;;;;;;4886480;29;20500;-85
2022/06/11 00:35:24;;;;;;;9.43;6.78;;;;;;;;;;4885784;29;20080;-82
2022/06/11 00:37:51;;;;;;;18.27;7.22;;;;;;;;;;4903046;29;20072;-88
2022/06/11 00:40:18;;;;;;;12.05;7.65;;;;;;;;;;4900565;29;20063;-88
2022/06/11 00:42:45;;;;;;;14.00;7.95;;;;;;;;;;4886817;29;20091;-87
2022/06/11 00:45:17;;;;;;;10.20;6.70;;;;;;;;;;4900342;29;20043;-83
2022/06/11 00:47:44;;;;;;;9.48;6.88;;;;;;;;;;4871138;29;20052;-88
2022/06/11 00:50:46;;;;;;;9.18;6.30;;;;;;;;;;4902347;29;20048;-86
2022/06/11 00:53:19;;;;;;;10.90;7.80;;;;;;;;;;4824395;29;20050;-86
2022/06/11 00:55:46;;;;;;;14.30;7.90;;;;;;;;;;4893231;29;20104;-84
2022/06/11 00:58:15;;;;;;;12.18;7.75;;;;;;;;;;4866779;29;20548;-85
2022/06/11 01:00:47;;;;;;;15.73;8.65;;;;;;;;;;4902502;29;20028;-84
2022/06/11 01:03:14;;;;;;;14.40;9.02;;;;;;;;;;4881782;29;20036;-84
2022/06/11 01:05:46;;;;;;;17.67;8.43;;;;;;;;;;4884860;29;20044;-84
2022/06/11 01:08:21;;;;;;;14.10;8.25;;;;;;;;;;4884434;29;20040;-81
2022/06/11 01:11:06;;;;;;;11.52;8.25;;;;;;;;;;4883457;29;20052;-82
2022/06/11 01:13:32;;;;;;;14.90;8.88;;;;;;;;;;4902194;29;20461;-83
2022/06/11 01:16:05;;;;;;;11.65;7.60;;;;;;;;;;4900455;29;20064;-84
2022/06/11 01:18:51;;;;;;;10.40;7.80;;;;;;;;;;4881803;29;20063;-86
2022/06/11 01:21:20;;;;;;;10.93;8.48;;;;;;;;;;4878680;29;20190;-85
2022/06/11 01:24:01;;;;;;;13.43;8.75;;;;;;;;;;4879341;29;20052;-84
2022/06/11 01:26:46;;;;;;;14.80;8.80;;;;;;;;;;4881596;29;20055;-85
2022/06/11 01:29:12;;;;;;;15.93;8.75;;;;;;;;;;4861560;29;20233;-85
2022/06/11 01:31:38;;;;;;;10.25;7.78;;;;;;;;;;4881004;29;20055;-87
2022/06/11 01:34:22;;;;;;;12.40;7.60;;;;;;;;;;4864167;29;20053;-82
2022/06/11 01:36:51;;;;;;;12.57;8.10;;;;;;;;;;4847395;29;20049;-83
2022/06/11 01:39:31;;;;;;;10.55;7.80;;;;;;;;;;4884420;29;20159;-85
2022/06/11 01:42:02;;;;;;;14.23;8.38;;;;;;;;;;4893872;29;20052;-86
2022/06/11 01:44:32;;;;;;;13.07;7.80;;;;;;;;;;4900007;29;20069;-86
2022/06/11 01:46:58;;;;;;;17.48;8.40;;;;;;;;;;4890407;29;20048;-82
2022/06/11 01:49:24;;;;;;;17.10;7.78;;;;;;;;;;4893596;29;20052;-84
2022/06/11 01:52:00;;;;;;;20.40;7.18;;;;;;;;;;4920201;29;20091;-86
2022/06/11 01:54:35;;;;;;;11.52;6.93;;;;;;;;;;4916786;29;20095;-87
2022/06/11 01:57:23;;;;;;;12.07;7.05;;;;;;;;;;4896353;29;20059;-84
2022/06/11 01:59:58;;;;;;;22.00;6.15;;;;;;;;;;4917715;29;20040;-86
2022/06/11 02:02:31;;;;;;;17.10;5.88;;;;;;;;;;4892858;29;20082;-87
2022/06/11 02:05:06;;;;;;;19.30;5.53;;;;;;;;;;4890953;29;20052;-82
2022/06/11 02:07:35;;;;;;;13.45;5.38;;;;;;;;;;4900753;29;20512;-85
2022/06/11 02:10:34;;;;;;;9.68;4.85;;;;;;;;;;4888438;29;20872;-84
2022/06/11 02:13:09;;;;;;;13.80;4.70;;;;;;;;;;4889289;29;20052;-83
2022/06/11 02:15:49;;;;;;;11.20;5.60;;;;;;;;;;4885470;29;20052;-84
2022/06/11 02:18:18;;;;;;;12.00;5.18;;;;;;;;;;4886387;29;20040;-87
2022/06/11 02:20:51;;;;;;;12.00;4.07;;;;;;;;;;4886647;29;20477;-84
2022/06/11 02:23:23;;;;;;;8.30;3.90;;;;;;;;;;4889827;29;20056;-85
2022/06/11 02:26:10;;;;;;;14.48;3.95;;;;;;;;;;4902869;29;20059;-86
2022/06/11 02:28:39;;;;;;;13.77;4.40;;;;;;;;;;4871802;29;20055;-85
2022/06/11 02:31:23;;;;;;;11.38;3.80;;;;;;;;;;4906156;29;20094;-83
2022/06/11 02:33:50;;;;;;;10.93;3.65;;;;;;;;;;4907826;29;20051;-84
2022/06/11 02:36:19;;;;;;;13.82;4.32;;;;;;;;;;4904748;29;20531;-87
2022/06/11 02:38:46;;;;;;;16.40;3.90;;;;;;;;;;4874607;29;20119;-86
2022/06/11 02:41:26;;;;;;;11.90;3.83;;;;;;;;;;4905699;29;20038;-86
2022/06/11 02:43:52;;;;;;;9.07;3.40;;;;;;;;;;4889269;29;20345;-85
2022/06/11 02:49:04;;;;;;;8.68;3.30;;;;;;;;;;4902487;29;20472;-87
2022/06/11 02:51:31;;;;;;;16.88;4.00;;;;;;;;;;4902529;29;20051;-84
2022/06/11 02:53:57;;;;;;;13.68;3.97;;;;;;;;;;4883372;29;20047;-85
2022/06/11 02:56:27;;;;;;;11.82;3.67;;;;;;;;;;4887815;29;20062;-88
2022/06/11 02:58:54;;;;;;;11.10;3.63;;;;;;;;;;4900160;29;20063;-83
2022/06/11 03:01:21;;;;;;;13.48;3.75;;;;;;;;;;4900276;29;20511;-87
2022/06/11 03:03:49;;;;;;;10.23;3.28;;;;;;;;;;4901163;29;20051;-87
2022/06/11 03:06:42;;;;;;;11.35;3.22;;;;;;;;;;4844971;29;20073;-84
2022/06/11 03:12:10;;;;;;;11.30;3.58;;;;;;;;;;4841291;29;20101;-88
2022/06/11 03:14:36;;;;;;;12.48;3.53;;;;;;;;;;4847347;29;20048;-86
2022/06/11 03:17:02;;;;;;;11.55;3.55;;;;;;;;;;4859166;29;20045;-86
2022/06/11 03:19:41;;;;;;;13.27;3.90;;;;;;;;;;4831686;29;20116;-88
2022/06/11 03:22:13;;;;;;;9.82;3.20;;;;;;;;;;4845178;29;20067;-85
2022/06/11 03:24:45;;;;;;;10.07;3.30;;;;;;;;;;4860249;29;20048;-86
2022/06/11 03:27:11;;;;;;;13.02;3.47;;;;;;;;;;4845620;29;20064;-86
2022/06/11 03:29:37;;;;;;;9.60;2.85;;;;;;;;;;4858546;29;20033;-84
2022/06/11 03:32:03;;;;;;;10.63;3.42;;;;;;;;;;4862800;29;20049;-85
2022/06/11 03:34:30;;;;;;;10.73;3.58;;;;;;;;;;4857151;29;20045;-87
2022/06/11 03:36:57;;;;;;;9.73;3.08;;;;;;;;;;4859461;29;20195;-87
2022/06/11 03:39:24;;;;;;;12.43;3.67;;;;;;;;;;4884898;29;20048;-83
2022/06/11 03:41:51;;;;;;;13.48;4.38;;;;;;;;;;4897180;29;20493;-86
2022/06/11 03:44:17;;;;;;;12.13;3.08;;;;;;;;;;4899449;29;20048;-86
2022/06/11 03:46:44;;;;;;;15.70;3.00;;;;;;;;;;4900939;29;20087;-84
2022/06/11 03:49:11;;;;;;;9.80;3.15;;;;;;;;;;4883453;29;20048;-85
2022/06/11 03:51:37;;;;;;;12.88;3.80;;;;;;;;;;4900673;29;20580;-87
2022/06/11 03:54:04;;;;;;;11.95;3.45;;;;;;;;;;4882801;29;20097;-84
2022/06/11 03:56:33;;;;;;;9.23;2.58;;;;;;;;;;4884544;29;20099;-86
2022/06/11 03:58:59;;;;;;;8.23;3.17;;;;;;;;;;4900333;29;20052;-85
2022/06/11 04:01:29;;;;;;;13.23;3.10;;;;;;;;;;4885401;29;20095;-86
2022/06/11 04:04:01;;;;;;;12.57;3.25;;;;;;;;;;4883816;29;20402;-86
2022/06/11 04:06:35;;;;;;;14.65;3.35;;;;;;;;;;4885822;29;20048;-83
2022/06/11 04:09:04;;;;;;;14.60;2.90;;;;;;;;;;4904944;29;20044;-85
2022/06/11 04:11:30;;;;;;;18.92;3.25;;;;;;;;;;4905651;29;20039;-83
2022/06/11 04:13:56;;;;;;;15.63;3.38;;;;;;;;;;4888512;29;20497;-87
2022/06/11 04:16:34;;;;;;;12.02;3.83;;;;;;;;;;4884471;29;20068;-87
2022/06/11 04:19:01;;;;;;;10.05;3.70;;;;;;;;;;4898519;29;20058;-86
2022/06/11 04:21:28;;;;;;;14.30;3.72;;;;;;;;;;4884961;29;20547;-85
2022/06/11 04:24:05;;;;;;;15.43;3.33;;;;;;;;;;4896219;29;20056;-84
2022/06/11 04:26:43;;;;;;;11.65;3.28;;;;;;;;;;4901843;29;20489;-85
2022/06/11 04:29:13;;;;;;;11.95;3.83;;;;;;;;;;4899339;29;20054;-86
2022/06/11 04:31:50;;;;;;;10.13;3.60;;;;;;;;;;4899113;29;20056;-89
2022/06/11 04:34:28;;;;;;;13.40;4.05;;;;;;;;;;4901776;29;20051;-82
2022/06/11 04:36:58;;;;;;;18.67;4.40;;;;;;;;;;4902367;29;20095;-84
2022/06/11 04:39:25;;;;;;;12.43;3.45;;;;;;;;;;4887989;29;20047;-87
2022/06/11 04:41:52;;;;;;;15.18;4.60;;;;;;;;;;4888570;29;20064;-86
2022/06/11 04:44:18;;;;;;;12.85;3.83;;;;;;;;;;4917725;29;20032;-82
2022/06/11 04:46:57;;;;;;;16.60;4.15;;;;;;;;;;4907736;29;20074;-82
2022/06/11 04:49:23;;;;;;;14.85;3.90;;;;;;;;;;4901721;29;20048;-81
2022/06/11 04:51:49;;;;;;;12.45;4.38;;;;;;;;;;4906607;29;20056;-82
2022/06/11 04:54:15;;;;;;;11.68;3.88;;;;;;;;;;4888467;29;20041;-84
2022/06/11 04:56:42;;;;;;;15.25;3.97;;;;;;;;;;4853295;29;20040;-82
2022/06/11 04:59:08;;;;;;;17.45;5.10;;;;;;;;;;4900857;29;20082;-82
2022/06/11 05:01:35;;;;;;;19.08;4.97;;;;;;;;;;4882631;29;20048;-84
2022/06/11 05:04:01;;;;;;;14.10;4.30;;;;;;;;;;4854363;29;20127;-85
2022/06/11 05:06:29;;;;;;;19.23;4.38;;;;;;;;;;4868194;29;20377;-83
2022/06/11 05:08:56;;;;;;;16.85;4.32;;;;;;;;;;4901767;29;20048;-84
2022/06/11 05:11:23;;;;;;;17.48;4.93;;;;;;;;;;4867918;29;20048;-86
2022/06/11 05:13:50;;;;;;;13.23;4.65;;;;;;;;;;4901471;29;20044;-84
2022/06/11 05:16:17;;;;;;;16.08;3.95;;;;;;;;;;4900531;29;20044;-84
2022/06/11 05:18:43;;;;;;;19.10;4.40;;;;;;;;;;4884016;29;20067;-88
2022/06/11 05:21:09;;;;;;;26.30;4.90;;;;;;;;;;4904202;29;20823;-84
2022/06/11 05:23:46;;;;;;;11.43;3.55;;;;;;;;;;4900731;29;21305;-86
2022/06/11 05:26:22;;;;;;;18.88;3.88;;;;;;;;;;4890129;29;20613;-84
2022/06/11 05:29:00;;;;;;;15.82;3.92;;;;;;;;;;4880589;29;20052;-86
2022/06/11 05:31:26;;;;;;;14.52;4.32;;;;;;;;;;4851179;29;20084;-85
2022/06/11 05:33:52;;;;;;;13.23;3.95;;;;;;;;;;4882302;29;20639;-86
2022/06/11 05:36:20;;;;;;;15.82;4.40;;;;;;;;;;4852937;29;20045;-85
2022/06/11 05:38:46;;;;;;;20.65;4.97;;;;;;;;;;4884010;29;20048;-86
2022/06/11 05:41:15;;;;;;;17.45;4.45;;;;;;;;;;4870339;29;20135;-83
2022/06/11 05:43:44;;;;;;;21.88;5.20;;;;;;;;;;4867182;29;20492;-85
2022/06/11 05:46:13;;;;;;;24.75;4.78;;;;;;;;;;4865853;29;20044;-86
2022/06/11 05:48:44;;;;;;;18.83;4.90;;;;;;;;;;4882251;29;20196;-83
2022/06/11 05:51:15;;;;;;;21.63;4.03;;;;;;;;;;4884094;29;20543;-83
2022/06/11 05:53:54;;;;;;;17.30;4.60;;;;;;;;;;4885545;29;21844;-84
2022/06/11 05:56:29;;;;;;;15.73;4.20;;;;;;;;;;4885007;29;20037;-88
2022/06/11 05:59:12;;;;;;;25.88;4.70;;;;;;;;;;4856972;29;22210;-84
2022/06/11 06:01:40;;;;;;;18.63;4.55;;;;;;;;;;4904106;29;20052;-82
2022/06/11 06:04:06;;;;;;;25.38;6.13;;;;;;;;;;4888943;29;20048;-86
2022/06/11 06:06:32;;;;;;;18.17;4.68;;;;;;;;;;4891624;29;20475;-82
2022/06/11 06:08:58;;;;;;;20.73;4.72;;;;;;;;;;4907245;29;20036;-85
2022/06/11 06:11:26;;;;;;;20.52;4.60;;;;;;;;;;4907753;29;20112;-83
2022/06/11 06:13:52;;;;;;;22.17;5.10;;;;;;;;;;4903608;29;20572;-88
2022/06/11 06:16:20;;;;;;;23.15;5.40;;;;;;;;;;4909619;29;20084;-88
2022/06/11 06:18:46;;;;;;;21.05;5.25;;;;;;;;;;4905547;29;20048;-86
2022/06/11 06:21:12;;;;;;;17.30;5.18;;;;;;;;;;4906989;29;20056;-86
2022/06/11 06:23:47;;;;;;;24.65;4.80;;;;;;;;;;4904811;29;20056;-86
2022/06/11 06:26:14;;;;;;;25.00;6.07;;;;;;;;;;4905329;29;20067;-87
2022/06/11 06:28:41;;;;;;;22.90;5.22;;;;;;;;;;4905561;29;20052;-86
2022/06/11 06:31:07;;;;;;;22.13;4.78;;;;;;;;;;4890498;29;20056;-88
2022/06/11 06:33:33;;;;;;;20.85;5.53;;;;;;;;;;4905920;29;20548;-86
2022/06/11 06:36:00;;;;;;;25.45;5.57;;;;;;;;;;4907407;29;20056;-83
2022/06/11 06:38:27;;;;;;;24.27;5.50;;;;;;;;;;4906877;29;20048;-87
2022/06/11 06:40:53;;;;;;;33.17;6.63;;;;;;;;;;4889158;29;20048;-85
2022/06/11 06:43:20;;;;;;;24.17;5.50;;;;;;;;;;4876220;29;20048;-87
2022/06/11 06:45:46;;;;;;;29.73;6.63;;;;;;;;;;4890212;29;20056;-84
2022/06/11 06:51:41;;;;;;;24.40;5.82;;;;;;;;;;4908013;29;20091;-82
2022/06/11 06:54:16;;;;;;;30.52;6.43;;;;;;;;;;4905719;29;20056;-82
2022/06/11 06:56:58;;;;;;;21.35;4.68;;;;;;;;;;4889241;29;20056;-83
2022/06/11 06:59:24;;;;;;;27.58;5.97;;;;;;;;;;4884642;29;20048;-84
2022/06/11 07:01:59;;;;;;;30.27;5.15;;;;;;;;;;4888338;29;20216;-85
2022/06/11 07:04:28;;;;;;;26.73;5.38;;;;;;;;;;4906986;29;20051;-83
2022/06/11 07:06:55;;;;;;;25.63;5.95;;;;;;;;;;4916389;29;20056;-86
2022/06/11 07:09:21;;;;;;;25.73;5.03;;;;;;;;;;4878562;29;20060;-86
2022/06/11 07:11:48;;;;;;;26.33;5.38;;;;;;;;;;4908304;29;20040;-81
2022/06/11 07:14:14;;;;;;;19.40;4.53;;;;;;;;;;4876802;29;20040;-85
2022/06/11 07:16:44;;;;;;;25.10;5.40;;;;;;;;;;4879407;29;20074;-85
2022/06/11 07:19:19;;;;;;;28.58;5.72;;;;;;;;;;4908338;29;20547;-85
2022/06/11 07:29:20;;;;;;;26.48;5.57;;;;;;;;;;4919069;29;20068;-88
2022/06/11 07:31:48;;;;;;;24.42;6.30;;;;;;;;;;4920143;29;20102;-82
2022/06/11 07:34:16;;;;;;;32.67;6.55;;;;;;;;;;4910278;29;20052;-89
2022/06/11 07:36:42;;;;;;;24.45;5.53;;;;;;;;;;4909950;29;20059;-89
2022/06/11 07:39:08;;;;;;;25.67;5.22;;;;;;;;;;4910523;29;20060;-81
2022/06/11 07:41:34;;;;;;;18.05;4.95;;;;;;;;;;4907086;29;20055;-83
2022/06/11 07:44:13;;;;;;;30.75;5.97;;;;;;;;;;4890350;29;20136;-89
2022/06/11 07:46:39;;;;;;;29.00;6.10;;;;;;;;;;4890613;29;20044;-86
2022/06/11 07:49:05;;;;;;;28.88;5.93;;;;;;;;;;4893123;29;20074;-88
2022/06/11 07:51:31;;;;;;;26.10;5.97;;;;;;;;;;4892737;29;20048;-87
2022/06/11 07:54:07;;;;;;;32.17;6.55;;;;;;;;;;4909335;29;20052;-89
2022/06/11 07:56:33;;;;;;;31.33;6.65;;;;;;;;;;4874231;29;20061;-89
2022/06/11 07:59:00;;;;;;;27.48;6.03;;;;;;;;;;4911109;29;20552;-90
2022/06/11 08:01:26;;;;;;;31.30;6.18;;;;;;;;;;4914315;29;20104;-91
2022/06/11 08:03:52;;;;;;;27.23;5.80;;;;;;;;;;4893054;29;21391;-92
2022/06/11 08:06:34;;;;;;;25.23;6.03;;;;;;;;;;4891381;29;20528;-90
2022/06/11 08:09:01;;;;;;;22.02;5.63;;;;;;;;;;4909262;29;20067;-92
2022/06/11 08:11:27;;;;;;;27.15;5.85;;;;;;;;;;4892129;29;20446;-89
2022/06/11 08:13:53;;;;;;;25.98;6.28;;;;;;;;;;4894601;29;20441;-88
2022/06/11 08:16:25;;;;;;;25.25;5.78;;;;;;;;;;4911107;29;20491;-89
2022/06/11 08:18:51;;;;;;;22.52;5.75;;;;;;;;;;4911712;29;20048;-89
2022/06/11 08:21:35;;;;;;;23.38;5.85;;;;;;;;;;4909648;29;20042;-92
2022/06/11 08:24:02;;;;;;;20.30;4.85;;;;;;;;;;4894459;29;20062;-92
2022/06/11 08:26:50;;;;;;;29.67;6.20;;;;;;;;;;4894481;29;20044;-88
2022/06/11 08:29:34;;;;;;;29.58;5.18;;;;;;;;;;4908712;29;20147;-90
2022/06/11 08:32:00;;;;;;;24.00;5.93;;;;;;;;;;4910724;29;20092;-93
2022/06/11 08:34:31;;;;;;;23.42;5.78;;;;;;;;;;4896243;29;20044;-86
2022/06/11 08:37:09;;;;;;;24.23;5.72;;;;;;;;;;4893994;29;20044;-85
2022/06/11 08:39:36;;;;;;;25.23;5.15;;;;;;;;;;4893652;29;20452;-84
2022/06/11 08:42:26;;;;;;;36.15;5.82;;;;;;;;;;4911683;29;20126;-86
2022/06/11 08:44:53;;;;;;;19.83;4.78;;;;;;;;;;4884114;29;20044;-88
2022/06/11 08:47:24;;;;;;;27.35;5.32;;;;;;;;;;4910559;29;20036;-91
2022/06/11 08:49:54;;;;;;;20.73;5.40;;;;;;;;;;4893565;29;20558;-90
2022/06/11 08:52:22;;;;;;;33.88;6.20;;;;;;;;;;4895581;29;20138;-85
2022/06/11 08:54:49;;;;;;;21.20;4.70;;;;;;;;;;4887351;29;20071;-88
2022/06/11 08:57:30;;;;;;;25.08;4.70;;;;;;;;;;4897599;29;20088;-82
2022/06/11 09:00:02;;;;;;;21.85;5.00;;;;;;;;;;4901262;29;20075;-91
2022/06/11 09:02:29;;;;;;;22.85;4.68;;;;;;;;;;4887811;29;20051;-84
2022/06/11 09:04:58;;;;;;;25.95;5.30;;;;;;;;;;4924473;29;20036;-83
2022/06/11 09:07:35;;;;;;;18.25;4.07;;;;;;;;;;4906643;29;20049;-87
2022/06/11 09:10:07;;;;;;;22.17;4.80;;;;;;;;;;4921204;29;20040;-89
2022/06/11 09:12:43;;;;;;;27.52;5.97;;;;;;;;;;4914373;29;20040;-83
2022/06/11 09:15:18;;;;;;;22.67;5.32;;;;;;;;;;4912241;29;20103;-81
2022/06/11 09:17:48;;;;;;;23.95;4.97;;;;;;;;;;4919686;29;20508;-82
2022/06/11 09:20:21;;;;;;;27.20;5.68;;;;;;;;;;4882645;29;20103;-82
2022/06/11 09:23:06;;;;;;;21.00;4.47;;;;;;;;;;4891647;29;20048;-85
2022/06/11 09:25:41;;;;;;;22.48;4.30;;;;;;;;;;4877916;29;20131;-83
2022/06/11 09:28:07;;;;;;;22.25;4.68;;;;;;;;;;4885996;29;20159;-85
2022/06/11 09:30:41;;;;;;;24.75;4.50;;;;;;;;;;4887133;29;20036;-84
2022/06/11 09:33:18;;;;;;;24.60;4.78;;;;;;;;;;4861149;29;20501;-86
2022/06/11 09:35:50;;;;;;;22.52;5.72;;;;;;;;;;4885803;29;20060;-88
2022/06/11 09:38:19;;;;;;;24.52;4.25;;;;;;;;;;4897520;29;20448;-87
2022/06/11 09:41:08;;;;;;;25.23;5.57;;;;;;;;;;4888200;29;20088;-86
2022/06/11 09:43:49;;;;;;;16.92;4.25;;;;;;;;;;4893298;29;20139;-86
2022/06/11 09:46:15;;;;;;;20.75;4.22;;;;;;;;;;4888954;29;20044;-81
2022/06/11 09:48:41;;;;;;;17.98;3.88;;;;;;;;;;4891706;29;20044;-85
2022/06/11 09:51:07;;;;;;;19.45;3.72;;;;;;;;;;4892822;29;20920;-83
2022/06/11 09:53:52;;;;;;;17.23;4.22;;;;;;;;;;4890861;29;20092;-84
2022/06/11 09:56:29;;;;;;;15.02;3.40;;;;;;;;;;4889302;29;20140;-83
2022/06/11 09:58:55;;;;;;;19.98;4.65;;;;;;;;;;4888988;29;20178;-85
2022/06/11 10:01:43;;;;;;;18.25;3.92;;;;;;;;;;4886537;29;20501;-83
2022/06/11 10:04:20;;;;;;;21.50;4.15;;;;;;;;;;4906183;29;20075;-89
2022/06/11 10:06:46;;;;;;;20.48;3.60;;;;;;;;;;4892732;29;20044;-85
2022/06/11 10:09:32;;;;;;;16.17;3.38;;;;;;;;;;4874955;29;20055;-89
2022/06/11 10:12:18;;;;;;;12.88;2.72;;;;;;;;;;4889588;29;20102;-85
2022/06/11 10:14:51;;;;;;;17.02;3.97;;;;;;;;;;4873073;29;20485;-85
2022/06/11 10:17:25;;;;;;;15.40;3.53;;;;;;;;;;4870464;29;20044;-84
2022/06/11 10:19:55;;;;;;;20.65;4.30;;;;;;;;;;4883104;29;20055;-83
2022/06/11 10:22:33;;;;;;;14.55;3.95;;;;;;;;;;4885677;29;20040;-87
2022/06/11 10:25:05;;;;;;;12.52;3.78;;;;;;;;;;4891567;29;20059;-84
2022/06/11 10:27:34;;;;;;;12.52;3.10;;;;;;;;;;4910325;29;20032;-85
2022/06/11 10:30:26;;;;;;;19.08;3.40;;;;;;;;;;4911081;29;20051;-84
2022/06/11 10:32:53;;;;;;;18.27;3.47;;;;;;;;;;4898748;29;20044;-82
2022/06/11 10:35:24;;;;;;;16.15;3.50;;;;;;;;;;4925997;29;20028;-85
2022/06/11 10:37:59;;;;;;;17.65;3.92;;;;;;;;;;4913828;29;20052;-83
2022/06/11 10:40:29;;;;;;;16.38;3.90;;;;;;;;;;4891795;29;20501;-88
2022/06/11 10:43:11;;;;;;;16.80;3.03;;;;;;;;;;4910494;29;20377;-86
2022/06/11 10:45:37;;;;;;;14.60;3.33;;;;;;;;;;4905459;29;20498;-83
2022/06/11 10:48:06;;;;;;;16.00;3.58;;;;;;;;;;4904236;29;20043;-85
2022/06/11 10:50:35;;;;;;;11.43;3.28;;;;;;;;;;4894053;29;20071;-89
2022/06/11 10:53:24;;;;;;;22.75;3.58;;;;;;;;;;4910272;29;20071;-87
2022/06/11 10:55:51;;;;;;;13.38;2.97;;;;;;;;;;4905281;29;20477;-85
2022/06/11 10:58:36;;;;;;;13.18;3.13;;;;;;;;;;4907793;29;20055;-87
2022/06/11 11:01:04;;;;;;;15.02;3.72;;;;;;;;;;4896684;29;20508;-85
2022/06/11 11:03:46;;;;;;;10.88;2.90;;;;;;;;;;4912299;29;20044;-83
2022/06/11 11:06:30;;;;;;;11.13;2.90;;;;;;;;;;4905325;29;20119;-90
2022/06/11 11:09:11;;;;;;;16.83;3.75;;;;;;;;;;4904228;29;20138;-87
2022/06/11 11:11:42;;;;;;;18.88;3.17;;;;;;;;;;4877605;29;20404;-83
2022/06/11 11:14:16;;;;;;;14.77;3.00;;;;;;;;;;4907176;29;20068;-85
2022/06/11 11:16:52;;;;;;;13.10;2.88;;;;;;;;;;4889983;29;20056;-83
2022/06/11 11:19:28;;;;;;;15.00;3.53;;;;;;;;;;4889876;29;20079;-84
2022/06/11 11:22:33;;;;;;;17.08;3.53;;;;;;;;;;4874976;29;20083;-83
2022/06/11 11:25:37;;;;;;;15.07;2.80;;;;;;;;;;4888079;29;20446;-81
2022/06/11 11:28:03;;;;;;;;;;;;;;;;;;4888011;29;20072;-81
2022/06/11 11:30:33;;;;;;;15.93;3.53;;;;;;;;;;4872601;29;20399;-84
2022/06/11 11:33:12;;;;;;;12.57;3.10;;;;;;;;;;4888044;29;20655;-81
2022/06/11 11:35:39;;;;;;;14.35;3.25;;;;;;;;;;4882340;29;20393;-82
2022/06/11 11:38:05;;;;;;;8.73;2.88;;;;;;;;;;4887821;29;20484;-85
2022/06/11 11:40:33;;;;;;;9.85;2.95;;;;;;;;;;4904265;29;20457;-81
2022/06/11 11:43:05;;;;;;;10.65;3.10;;;;;;;;;;4857252;29;20545;-80
2022/06/11 11:45:43;;;;;;;10.95;2.58;;;;;;;;;;4874452;29;20661;-86
2022/06/11 11:48:14;;;;;;;17.30;3.15;;;;;;;;;;4905573;29;20397;-83
2022/06/11 11:50:41;;;;;;;13.63;3.15;;;;;;;;;;4891691;29;20044;-80
2022/06/11 11:53:23;;;;;;;11.80;3.15;;;;;;;;;;4888098;29;20099;-80
2022/06/11 11:56:15;;;;;;;16.45;3.30;;;;;;;;;;4891523;29;20147;-84
2022/06/11 11:58:47;;;;;;;15.20;3.10;;;;;;;;;;4860858;29;20068;-81
2022/06/11 12:01:16;;;;;;;14.88;3.17;;;;;;;;;;4874434;29;20060;-84
2022/06/11 12:03:45;;;;;;;15.80;3.25;;;;;;;;;;4874120;29;20481;-83
2022/06/11 12:06:13;;;;;;;16.67;3.78;;;;;;;;;;4888730;29;20048;-80
2022/06/11 12:08:45;;;;;;;17.33;3.90;;;;;;;;;;4873671;29;20050;-82
2022/06/11 12:11:26;;;;;;;17.48;3.30;;;;;;;;;;4899069;29;20491;-82
2022/06/11 12:13:54;;;;;;;17.25;3.85;;;;;;;;;;4886386;29;20442;-81
2022/06/11 12:16:31;;;;;;;13.07;3.42;;;;;;;;;;4888699;29;20087;-81
2022/06/11 12:19:00;;;;;;;16.15;3.13;;;;;;;;;;4901706;29;20080;-82
2022/06/11 12:21:29;;;;;;;13.02;3.45;;;;;;;;;;4886693;29;20167;-81
2022/06/11 12:23:55;;;;;;;14.35;3.35;;;;;;;;;;4865528;29;20060;-83
2022/06/11 12:26:31;;;;;;;12.35;3.33;;;;;;;;;;4908610;29;20080;-84
2022/06/11 12:29:00;;;;;;;13.10;3.20;;;;;;;;;;4875130;29;20131;-85
2022/06/11 12:31:28;;;;;;;11.63;2.90;;;;;;;;;;4875847;29;20099;-85
2022/06/11 12:33:54;;;;;;;13.65;3.25;;;;;;;;;;4905939;29;20052;-82
2022/06/11 12:36:45;;;;;;;14.80;3.03;;;;;;;;;;4904246;29;20500;-88
2022/06/11 12:39:23;;;;;;;8.32;2.70;;;;;;;;;;4905437;29;20048;-83
2022/06/11 12:42:02;;;;;;;12.35;3.30;;;;;;;;;;4887321;29;20063;-87
2022/06/11 12:44:28;;;;;;;12.75;2.80;;;;;;;;;;4891007;29;20067;-81
2022/06/11 12:46:54;;;;;;;11.70;3.58;;;;;;;;;;4914592;29;20072;-82
2022/06/11 12:49:26;;;;;;;13.27;2.83;;;;;;;;;;4914115;29;20075;-83
2022/06/11 12:52:11;;;;;;;11.13;2.90;;;;;;;;;;4914678;29;20494;-81
2022/06/11 12:54:56;;;;;;;10.95;2.80;;;;;;;;;;4913992;29;20058;-87
2022/06/11 12:57:45;;;;;;;10.32;3.25;;;;;;;;;;4889821;29;20516;-89
2022/06/11 13:00:34;;;;;;;11.40;2.67;;;;;;;;;;4873052;29;20045;-88
2022/06/11 13:03:00;;;;;;;10.85;2.83;;;;;;;;;;4857073;29;20071;-87
2022/06/11 13:05:45;;;;;;;11.95;2.58;;;;;;;;;;4876147;29;20067;-82
2022/06/11 13:08:37;;;;;;;10.70;2.45;;;;;;;;;;4891551;29;20145;-82
2022/06/11 13:11:10;;;;;;;10.02;2.40;;;;;;;;;;4900056;29;20071;-80
2022/06/11 13:13:47;;;;;;;13.18;2.75;;;;;;;;;;4891905;29;20040;-81
2022/06/11 13:16:16;;;;;;;8.45;2.13;;;;;;;;;;4891288;29;20093;-86
2022/06/11 13:18:55;;;;;;;12.23;2.60;;;;;;;;;;4906212;29;20048;-85
2022/06/11 13:21:30;;;;;;;10.00;2.30;;;;;;;;;;4901505;29;20418;-85
2022/06/11 13:24:05;;;;;;;7.35;2.15;;;;;;;;;;4894478;29;20532;-85
2022/06/11 13:26:46;;;;;;;7.20;1.85;;;;;;;;;;4910806;29;20168;-82
2022/06/11 13:29:24;;;;;;;7.30;2.05;;;;;;;;;;4911845;29;20052;-87
2022/06/11 13:31:55;;;;;;;5.18;1.90;;;;;;;;;;4918566;29;20052;-79
2022/06/11 13:34:27;;;;;;;8.32;2.30;;;;;;;;;;4906947;29;20464;-85
2022/06/11 13:37:03;;;;;;;8.13;2.17;;;;;;;;;;4915736;29;20064;-81
2022/06/11 13:39:35;;;;;;;10.35;2.30;;;;;;;;;;4904360;29;20128;-84
2022/06/11 13:42:12;;;;;;;11.95;2.17;;;;;;;;;;4912094;29;20049;-82
2022/06/11 13:44:59;;;;;;;8.10;2.33;;;;;;;;;;4913657;29;20040;-87
2022/06/11 13:47:44;;;;;;;8.75;2.60;;;;;;;;;;4896437;29;20048;-86
2022/06/11 13:50:25;;;;;;;8.30;2.38;;;;;;;;;;4880978;29;20055;-90
2022/06/11 13:55:48;;;;;;;12.55;2.53;;;;;;;;;;4912987;29;20536;-88
2022/06/11 13:58:17;;;;;;;9.43;2.63;;;;;;;;;;4895261;29;20527;-85
2022/06/11 14:00:54;;;;;;;10.75;2.80;;;;;;;;;;4913210;29;20048;-89
2022/06/11 14:03:26;;;;;;;10.32;3.03;;;;;;;;;;4895726;29;20927;-86
2022/06/11 14:05:54;;;;;;;9.30;2.15;;;;;;;;;;4895803;29;20048;-85
2022/06/11 14:08:21;;;;;;;9.35;2.58;;;;;;;;;;4895912;29;20079;-87
2022/06/11 14:10:49;;;;;;;9.55;2.92;;;;;;;;;;4912515;29;20055;-83
2022/06/11 14:13:38;;;;;;;10.38;3.10;;;;;;;;;;4912372;29;20040;-84
2022/06/11 14:16:23;;;;;;;11.20;2.97;;;;;;;;;;4872592;29;20064;-85
2022/06/11 14:18:49;;;;;;;8.30;2.55;;;;;;;;;;4878741;29;20488;-84
2022/06/11 14:21:34;;;;;;;9.25;2.00;;;;;;;;;;4896133;29;20063;-83
2022/06/11 14:24:00;;;;;;;9.27;3.38;;;;;;;;;;4877328;29;20052;-86
2022/06/11 14:26:45;;;;;;;11.05;3.33;;;;;;;;;;4911910;29;20145;-83
2022/06/11 14:29:19;;;;;;;11.93;3.10;;;;;;;;;;4892189;29;20078;-82
2022/06/11 14:31:53;;;;;;;13.90;3.95;;;;;;;;;;4904048;29;20044;-85
2022/06/11 14:34:24;;;;;;;12.82;4.53;;;;;;;;;;4909673;29;20044;-84
2022/06/11 14:37:16;;;;;;;7.65;2.75;;;;;;;;;;4890807;29;20857;-86
2022/06/11 14:39:42;;;;;;;9.20;3.30;;;;;;;;;;4907245;29;20706;-84
2022/06/11 14:42:08;;;;;;;13.45;3.42;;;;;;;;;;4888147;29;20191;-88
2022/06/11 14:44:34;;;;;;;12.88;3.75;;;;;;;;;;4891611;29;20510;-87
2022/06/11 14:47:01;;;;;;;11.25;2.75;;;;;;;;;;4905614;29;20429;-86
2022/06/11 14:49:37;;;;;;;14.52;3.90;;;;;;;;;;4895132;29;20529;-85
2022/06/11 14:52:03;;;;;;;10.30;3.10;;;;;;;;;;4906210;29;20052;-86
2022/06/11 14:54:39;;;;;;;10.68;2.95;;;;;;;;;;4893154;29;20048;-87
2022/06/11 14:57:13;;;;;;;8.88;2.90;;;;;;;;;;4911881;29;20107;-89
2022/06/11 14:59:48;;;;;;;14.10;3.80;;;;;;;;;;4911474;29;20044;-80
2022/06/11 15:02:33;;;;;;;11.27;3.30;;;;;;;;;;4894051;29;20048;-85
2022/06/11 15:05:22;;;;;;;12.30;2.83;;;;;;;;;;4910709;29;20547;-85
2022/06/11 15:07:54;;;;;;;16.13;3.38;;;;;;;;;;4878535;29;20060;-87
2022/06/11 15:10:20;;;;;;;14.57;3.03;;;;;;;;;;4894658;29;20044;-85
2022/06/11 15:13:05;;;;;;;9.45;2.40;;;;;;;;;;4911530;29;20056;-84
2022/06/11 15:15:36;;;;;;;16.63;3.75;;;;;;;;;;4911355;29;20052;-86
2022/06/11 15:18:08;;;;;;;10.35;2.88;;;;;;;;;;4910074;29;20099;-80
2022/06/11 15:20:37;;;;;;;9.95;3.00;;;;;;;;;;4909096;29;20143;-79